createdAt,value
2022-09-20T00:03:07.004Z,6.18
2022-09-20T00:08:17.135Z,8.30
2022-09-20T00:13:20.705Z,6.55
2022-09-20T00:18:24.744Z,7.82
2022-09-20T00:23:30.411Z,6.47
2022-09-20T00:28:34.772Z,7.88
2022-09-20T00:33:52.097Z,6.97
2022-09-20T00:38:59.173Z,5.70
2022-09-20T00:44:04.055Z,8.60
2022-09-20T00:49:15.883Z,6.25
2022-09-20T00:54:22.989Z,7.35
2022-09-20T00:59:31.431Z,7.93
2022-09-20T01:04:39.026Z,5.80
2022-09-20T01:14:51.907Z,6.22
2022-09-20T01:20:15.799Z,5.63
2022-09-20T01:25:49.008Z,6.07
2022-09-20T01:31:07.598Z,6.72
2022-09-20T01:36:17.871Z,5.50
2022-09-20T01:41:29.188Z,4.82
2022-09-20T01:46:37.035Z,4.85
2022-09-20T01:52:35.762Z,4.75
2022-09-20T02:47:08.357Z,5.90
2022-09-20T02:52:25.170Z,4.53
2022-09-20T02:57:45.692Z,4.73
2022-09-20T03:03:06.216Z,3.70
2022-09-20T03:08:34.671Z,5.50
2022-09-20T03:14:13.440Z,6.30
2022-09-20T03:19:36.917Z,4.65
2022-09-20T03:25:00.405Z,6.72
2022-09-20T03:30:43.523Z,7.45
2022-09-20T03:36:18.474Z,4.97
2022-09-20T03:42:03.292Z,6.38
2022-09-20T03:47:27.173Z,4.15
2022-09-20T03:53:04.141Z,3.55
2022-09-20T03:58:41.841Z,3.63
2022-09-20T04:03:56.361Z,5.85
2022-09-20T04:09:40.554Z,3.75
2022-09-20T04:14:54.659Z,5.35
2022-09-20T04:20:08.491Z,4.20
2022-09-20T04:25:18.781Z,5.85
2022-09-20T04:30:29.577Z,3.75
2022-09-20T04:36:08.115Z,7.20
2022-09-20T04:41:51.309Z,4.28
2022-09-20T04:47:44.858Z,8.05
2022-09-20T04:53:31.312Z,3.60
2022-09-20T04:58:48.051Z,5.25
2022-09-20T05:04:54.714Z,4.70
2022-09-20T05:16:27.373Z,5.72
2022-09-20T05:22:10.679Z,5.88
2022-09-20T05:27:38.035Z,4.50
2022-09-20T05:32:49.641Z,3.38
2022-09-20T05:38:10.357Z,4.43
2022-09-20T05:43:26.432Z,5.60
2022-09-20T05:48:41.676Z,3.30
2022-09-20T05:54:25.217Z,4.72
2022-09-20T05:59:49.541Z,3.58
2022-09-20T06:05:03.534Z,2.80
2022-09-20T06:10:43.736Z,3.20
2022-09-20T06:15:59.224Z,4.53
2022-09-20T06:21:20.745Z,4.95
2022-09-20T06:26:30.201Z,4.32
2022-09-20T06:31:35.264Z,3.80
2022-09-20T06:36:59.925Z,4.03
2022-09-20T06:42:03.464Z,3.90
2022-09-20T06:47:09.941Z,3.38
2022-09-20T06:52:16.843Z,4.03
2022-09-20T06:57:25.218Z,3.77
2022-09-20T07:02:30.089Z,3.72
2022-09-20T07:07:33.757Z,3.15
2022-09-20T07:12:37.242Z,4.57
2022-09-20T07:17:45.987Z,6.05
2022-09-20T07:22:50.653Z,4.25
2022-09-20T07:27:54.191Z,3.35
2022-09-20T07:33:00.258Z,5.30
2022-09-20T07:38:03.773Z,5.28
2022-09-20T07:43:07.416Z,6.47
2022-09-20T07:48:12.294Z,3.30
2022-09-20T07:53:15.858Z,5.80
2022-09-20T07:58:19.353Z,3.78
2022-09-20T08:03:24.736Z,4.75
2022-09-20T08:08:28.992Z,6.68
2022-09-20T08:19:00.310Z,11.02
2022-09-20T08:24:04.222Z,4.63
2022-09-20T08:29:08.071Z,7.03
2022-09-20T08:34:15.611Z,7.28
2022-09-20T08:45:00.555Z,9.68
2022-09-20T08:50:11.865Z,9.00
2022-09-20T08:55:24.198Z,9.98
2022-09-20T09:00:33.232Z,8.00
2022-09-20T09:05:44.662Z,10.18
2022-09-20T09:10:55.303Z,9.75
2022-09-20T09:16:02.981Z,8.45
2022-09-20T09:26:22.411Z,11.30
2022-09-20T09:31:27.758Z,7.65
2022-09-20T09:36:33.715Z,7.00
2022-09-20T09:41:37.302Z,5.35
2022-09-20T09:46:41.497Z,6.93
2022-09-20T09:52:06.957Z,7.13
2022-09-20T09:57:44.595Z,7.68
2022-09-20T10:03:15.767Z,5.90
2022-09-20T10:08:33.632Z,7.15
2022-09-20T10:13:48.134Z,5.93
2022-09-20T10:19:01.571Z,7.82
2022-09-20T10:24:31.392Z,4.88
2022-09-20T10:29:57.297Z,4.75
2022-09-20T10:35:18.211Z,4.13
2022-09-20T10:40:47.680Z,6.25
2022-09-20T10:46:30.657Z,5.28
2022-09-20T10:51:45.786Z,6.13
2022-09-20T10:57:10.450Z,8.68
2022-09-20T11:02:42.114Z,8.05
2022-09-20T11:08:02.287Z,9.20
2022-09-20T11:13:20.215Z,7.40
2022-09-20T11:18:33.703Z,6.07
2022-09-20T11:23:51.146Z,6.85
2022-09-20T11:29:02.824Z,7.78
2022-09-20T11:34:18.154Z,6.00
2022-09-20T11:39:30.115Z,6.05
2022-09-20T11:44:38.183Z,5.15
2022-09-20T11:50:33.062Z,6.18
2022-09-20T11:55:44.443Z,6.05
2022-09-20T12:00:54.365Z,5.47
2022-09-20T12:06:02.176Z,4.82
2022-09-20T12:11:10.203Z,7.63
2022-09-20T12:16:36.410Z,7.07
2022-09-20T12:22:29.594Z,4.95
2022-09-20T12:27:57.974Z,5.40
2022-09-20T12:33:04.188Z,5.43
2022-09-20T12:38:19.413Z,4.55
2022-09-20T12:43:25.547Z,4.63
2022-09-20T12:48:38.274Z,6.38
2022-09-20T12:53:41.912Z,7.50
2022-09-20T12:58:54.785Z,4.75
2022-09-20T13:05:03.494Z,4.03
2022-09-20T13:10:27.091Z,4.10
2022-09-20T13:15:33.164Z,4.88
2022-09-20T13:20:40.084Z,5.18
2022-09-20T13:25:45.297Z,5.63
2022-09-20T13:30:48.872Z,4.90
2022-09-20T13:35:57.331Z,4.22
2022-09-20T13:41:09.222Z,4.40
2022-09-20T13:46:16.560Z,4.70
2022-09-20T13:51:26.707Z,4.78
2022-09-20T13:56:32.779Z,3.58
2022-09-20T14:01:37.370Z,5.03
2022-09-20T14:06:43.185Z,4.50
2022-09-20T14:11:47.803Z,4.95
2022-09-20T14:16:54.457Z,5.25
2022-09-20T14:22:01.443Z,4.40
2022-09-20T14:27:18.909Z,4.03
2022-09-20T14:32:38.752Z,4.82
2022-09-20T14:37:48.309Z,6.80
2022-09-20T14:42:57.430Z,5.80
2022-09-20T14:48:10.706Z,4.35
2022-09-20T14:53:29.634Z,4.68
2022-09-20T14:58:34.390Z,7.65
2022-09-20T15:03:42.195Z,9.52
2022-09-20T15:13:50.897Z,28.50
2022-09-20T15:18:54.966Z,25.40
2022-09-20T15:23:59.882Z,22.25
2022-09-20T15:29:03.926Z,27.10
2022-09-20T15:34:08.089Z,18.77
2022-09-20T15:39:13.386Z,16.33
2022-09-20T15:44:17.928Z,20.17
2022-09-20T15:49:22.272Z,20.35
2022-09-20T15:54:27.864Z,14.30
2022-09-20T15:59:33.095Z,17.23
2022-09-20T16:04:37.196Z,15.50
2022-09-20T16:09:42.690Z,16.48
2022-09-20T16:14:46.645Z,14.32
2022-09-20T16:19:51.068Z,10.30
2022-09-20T16:24:56.210Z,7.95
2022-09-20T16:30:00.078Z,11.20
2022-09-20T16:35:07.416Z,7.65
2022-09-20T16:40:15.347Z,6.82
2022-09-20T16:45:19.405Z,9.73
2022-09-20T16:50:23.056Z,5.40
2022-09-20T16:55:28.098Z,9.10
2022-09-20T17:00:33.977Z,6.88
2022-09-20T17:05:37.619Z,6.18
2022-09-20T17:10:42.990Z,7.90
2022-09-20T17:15:48.705Z,4.68
2022-09-20T17:20:52.427Z,8.90
2022-09-20T17:26:07.627Z,7.85
2022-09-20T17:31:15.456Z,4.30
2022-09-20T17:36:22.023Z,5.05
2022-09-20T17:41:29.123Z,8.77
2022-09-20T17:46:33.288Z,7.30
2022-09-20T17:51:40.567Z,4.43
2022-09-20T17:56:48.994Z,6.47
2022-09-20T18:01:54.546Z,4.75
2022-09-20T18:06:58.349Z,5.45
2022-09-20T18:12:05.093Z,5.45
2022-09-20T18:17:09.468Z,6.22
2022-09-20T18:22:13.209Z,5.45
2022-09-20T18:27:18.424Z,5.18
2022-09-20T18:32:22.019Z,4.15
2022-09-20T18:37:25.781Z,4.03
2022-09-20T18:42:31.051Z,4.35
2022-09-20T18:47:34.595Z,3.05
2022-09-20T18:52:39.192Z,3.95
2022-09-20T18:57:45.556Z,5.25
2022-09-20T19:03:08.078Z,3.88
2022-09-20T19:08:26.802Z,4.10
2022-09-20T19:13:44.985Z,3.57
2022-09-20T19:19:23.062Z,4.90
2022-09-20T19:25:12.444Z,4.82
2022-09-20T19:30:19.620Z,3.60
2022-09-20T19:35:31.365Z,3.72
2022-09-20T19:40:47.435Z,4.60
2022-09-20T19:46:06.949Z,5.03
2022-09-20T19:51:14.014Z,4.50
2022-09-20T19:56:27.642Z,7.07
2022-09-20T20:01:34.321Z,4.10
2022-09-20T20:06:47.457Z,4.13
2022-09-20T20:12:04.143Z,5.07
2022-09-20T20:17:32.035Z,5.30
2022-09-20T20:23:23.419Z,6.45
2022-09-20T20:28:27.134Z,4.25
2022-09-20T20:33:33.575Z,5.63
2022-09-20T20:38:38.147Z,4.00
2022-09-20T20:43:45.763Z,4.45
2022-09-20T20:53:58.313Z,4.72
2022-09-20T21:04:11.456Z,5.10
2022-09-20T21:09:15.013Z,5.93
2022-09-20T21:14:18.554Z,6.50
2022-09-20T21:19:23.959Z,4.80
2022-09-20T21:24:27.482Z,4.40
2022-09-20T21:29:31.795Z,3.65
2022-09-20T21:34:36.717Z,5.05
2022-09-20T21:39:40.274Z,3.50
2022-09-20T21:44:43.811Z,3.95
2022-09-20T21:49:48.785Z,3.67
2022-09-20T21:54:52.359Z,5.40
2022-09-20T21:59:55.923Z,9.90
2022-09-20T22:05:00.853Z,10.07
2022-09-20T22:10:04.969Z,5.72
2022-09-20T22:15:10.925Z,7.13
2022-09-20T22:20:16.284Z,8.35
2022-09-20T22:25:20.485Z,7.00
2022-09-20T22:30:24.580Z,7.78
2022-09-20T22:35:30.031Z,6.90
2022-09-20T22:40:34.479Z,7.47
2022-09-20T22:45:38.656Z,7.88
2022-09-20T22:50:44.130Z,6.93
2022-09-20T22:55:47.987Z,6.57
2022-09-20T23:00:51.943Z,6.95
2022-09-20T23:05:57.470Z,6.95
2022-09-20T23:11:04.010Z,7.85
2022-09-20T23:16:18.773Z,6.22
2022-09-20T23:21:24.610Z,7.32
2022-09-20T23:26:31.341Z,8.35
2022-09-20T23:31:37.773Z,7.83
2022-09-20T23:36:44.186Z,8.07
2022-09-20T23:41:51.006Z,5.70
2022-09-20T23:46:55.427Z,7.30
2022-09-20T23:52:00.781Z,8.27
2022-09-20T23:57:05.354Z,6.03
